createdAt,value
2018-11-28T00:02:43.701Z,46.90
2018-11-28T00:06:46.043Z,48.47
2018-11-28T00:10:48.455Z,47.03
2018-11-28T00:14:50.828Z,44.73
2018-11-28T00:18:53.213Z,51.70
2018-11-28T00:22:55.647Z,40.33
2018-11-28T00:26:58.129Z,40.87
2018-11-28T00:31:00.470Z,43.30
2018-11-28T00:35:02.910Z,41.20
2018-11-28T00:39:07.142Z,46.97
2018-11-28T00:43:09.592Z,44.27
2018-11-28T00:47:11.957Z,40.47
2018-11-28T00:51:14.263Z,43.80
2018-11-28T00:55:17.399Z,43.83
2018-11-28T00:59:19.757Z,36.30
2018-11-28T01:03:22.200Z,43.30
2018-11-28T01:07:24.595Z,41.60
2018-11-28T01:11:26.971Z,37.33
2018-11-28T01:15:29.348Z,32.87
2018-11-28T01:19:31.766Z,39.10
2018-11-28T01:23:34.188Z,39.77
2018-11-28T01:27:36.739Z,36.80
2018-11-28T01:31:39.105Z,41.50
2018-11-28T01:35:41.442Z,44.20
2018-11-28T01:39:43.771Z,43.27
2018-11-28T01:43:46.122Z,36.17
2018-11-28T01:47:48.668Z,41.53
2018-11-28T01:51:51.070Z,44.50
2018-11-28T01:55:53.547Z,45.43
2018-11-28T01:59:56.002Z,44.37
2018-11-28T02:03:58.337Z,51.80
2018-11-28T02:08:00.699Z,49.50
2018-11-28T02:12:03.120Z,52.10
2018-11-28T02:16:06.016Z,56.87
2018-11-28T02:20:10.018Z,47.80
2018-11-28T02:24:12.390Z,51.10
2018-11-28T02:28:14.710Z,57.40
2018-11-28T02:32:17.247Z,54.10
2018-11-28T02:36:19.602Z,56.23
2018-11-28T02:40:21.970Z,56.40
2018-11-28T02:44:24.395Z,56.20
2018-11-28T02:48:26.811Z,56.07
2018-11-28T02:52:29.126Z,56.67
2018-11-28T02:56:31.492Z,55.37
2018-11-28T03:00:33.807Z,52.90
2018-11-28T03:04:36.208Z,48.17
2018-11-28T03:08:38.595Z,48.27
2018-11-28T03:12:41.037Z,57.03
2018-11-28T03:16:43.456Z,49.10
2018-11-28T03:20:45.804Z,50.80
2018-11-28T03:24:48.160Z,54.87
2018-11-28T03:28:50.501Z,55.93
2018-11-28T03:32:52.841Z,55.97
2018-11-28T03:36:55.192Z,51.60
2018-11-28T03:40:57.609Z,54.13
2018-11-28T03:45:00.003Z,55.23
2018-11-28T03:49:02.481Z,54.77
2018-11-28T03:53:05.333Z,51.47
2018-11-28T03:57:07.709Z,50.60
2018-11-28T04:01:10.047Z,58.20
2018-11-28T04:05:12.662Z,58.90
2018-11-28T04:09:15.075Z,53.37
2018-11-28T04:13:17.426Z,58.07
2018-11-28T04:17:19.765Z,60.20
2018-11-28T04:21:22.083Z,57.47
2018-11-28T04:25:24.461Z,60.20
2018-11-28T04:29:26.776Z,62.63
2018-11-28T04:33:29.091Z,68.80
2018-11-28T04:37:31.409Z,65.33
2018-11-28T04:41:33.798Z,59.57
2018-11-28T04:45:36.254Z,55.73
2018-11-28T04:49:38.603Z,59.80
2018-11-28T04:53:40.929Z,53.10
2018-11-28T04:57:43.459Z,62.03
2018-11-28T05:01:45.802Z,53.30
2018-11-28T05:05:48.241Z,60.10
2018-11-28T05:09:50.610Z,54.47
2018-11-28T05:13:52.953Z,51.47
2018-11-28T05:17:55.366Z,56.83
2018-11-28T05:21:57.918Z,55.03
2018-11-28T05:26:00.260Z,52.43
2018-11-28T05:30:02.679Z,50.80
2018-11-28T05:34:05.168Z,62.77
2018-11-28T05:38:10.911Z,51.30
2018-11-28T05:42:13.276Z,57.70
2018-11-28T05:46:15.586Z,56.83
2018-11-28T05:50:19.748Z,58.83
2018-11-28T05:54:22.240Z,53.80
2018-11-28T05:58:24.570Z,52.23
2018-11-28T06:02:26.943Z,53.37
2018-11-28T06:06:29.273Z,51.67
2018-11-28T06:10:31.611Z,50.37
2018-11-28T06:14:33.936Z,54.53
2018-11-28T06:18:36.313Z,58.67
2018-11-28T06:22:38.655Z,55.87
2018-11-28T06:26:41.010Z,58.87
2018-11-28T06:30:43.330Z,54.63
2018-11-28T06:34:45.664Z,55.43
2018-11-28T06:38:47.999Z,55.30
2018-11-28T06:42:50.362Z,54.70
2018-11-28T06:46:52.779Z,54.70
2018-11-28T06:50:55.118Z,54.37
2018-11-28T06:54:57.464Z,54.30
2018-11-28T06:58:59.794Z,62.17
2018-11-28T07:03:02.148Z,51.60
2018-11-28T07:07:04.623Z,60.03
2018-11-28T07:11:06.949Z,64.37
2018-11-28T07:15:12.695Z,56.03
2018-11-28T07:19:15.119Z,58.50
2018-11-28T07:23:19.315Z,49.10
2018-11-28T07:27:21.787Z,51.37
2018-11-28T07:31:24.222Z,58.57
2018-11-28T07:35:26.735Z,54.43
2018-11-28T07:39:29.768Z,60.07
2018-11-28T07:43:32.220Z,57.83
2018-11-28T07:47:34.674Z,54.73
2018-11-28T07:51:37.189Z,61.03
2018-11-28T07:55:39.700Z,52.20
2018-11-28T07:59:42.391Z,58.63
2018-11-28T08:03:44.815Z,55.83
2018-11-28T08:07:47.323Z,63.87
2018-11-28T08:11:49.705Z,61.63
2018-11-28T08:15:52.098Z,58.93
2018-11-28T08:19:54.442Z,50.27
2018-11-28T08:23:56.884Z,57.73
2018-11-28T08:27:59.374Z,53.70
2018-11-28T08:32:01.736Z,55.27
2018-11-28T08:36:04.054Z,66.50
2018-11-28T08:40:12.551Z,55.60
2018-11-28T08:44:14.973Z,56.23
2018-11-28T08:48:18.550Z,56.90
2018-11-28T08:52:20.962Z,58.47
2018-11-28T08:56:23.365Z,53.73
2018-11-28T09:00:26.419Z,59.63
2018-11-28T09:04:28.906Z,57.93
2018-11-28T09:08:31.352Z,57.07
2018-11-28T09:12:33.869Z,60.07
2018-11-28T09:16:36.409Z,55.13
2018-11-28T09:20:38.915Z,55.10
2018-11-28T09:24:41.760Z,63.00
2018-11-28T09:28:44.168Z,57.47
2018-11-28T09:32:47.541Z,58.77
2018-11-28T09:36:49.933Z,62.63
2018-11-28T09:40:53.123Z,62.33
2018-11-28T09:44:55.499Z,57.23
2018-11-28T09:48:57.905Z,57.50
2018-11-28T09:53:00.297Z,63.13
2018-11-28T09:57:02.643Z,54.80
2018-11-28T10:01:05.448Z,56.80
2018-11-28T10:05:10.026Z,51.07
2018-11-28T10:09:12.451Z,56.60
2018-11-28T10:13:14.897Z,53.53
2018-11-28T10:17:17.338Z,55.63
2018-11-28T10:21:19.831Z,49.97
2018-11-28T10:25:23.969Z,61.77
2018-11-28T10:29:26.391Z,57.87
2018-11-28T10:33:28.856Z,57.47
2018-11-28T10:37:31.548Z,54.33
2018-11-28T10:41:33.875Z,48.90
2018-11-28T10:45:36.434Z,62.37
2018-11-28T10:49:38.845Z,61.73
2018-11-28T10:53:41.265Z,64.93
2018-11-28T10:57:43.855Z,55.60
2018-11-28T11:01:51.203Z,56.10
2018-11-28T11:05:59.349Z,65.40
2018-11-28T11:10:07.348Z,58.83
2018-11-28T11:14:15.365Z,58.17
2018-11-28T11:18:18.515Z,53.53
2018-11-28T11:22:20.884Z,57.23
2018-11-28T11:26:23.510Z,57.63
2018-11-28T11:30:25.989Z,49.73
2018-11-28T11:34:28.430Z,58.13
2018-11-28T11:38:30.821Z,55.87
2018-11-28T11:42:33.289Z,51.37
2018-11-28T11:46:35.650Z,47.07
2018-11-28T11:50:38.155Z,56.43
2018-11-28T11:54:40.529Z,51.20
2018-11-28T11:58:43.019Z,46.20
2018-11-28T12:02:52.411Z,46.00
2018-11-28T12:06:54.888Z,44.77
2018-11-28T12:10:57.880Z,44.37
2018-11-28T12:15:00.243Z,46.07
2018-11-28T12:19:02.758Z,42.43
2018-11-28T12:23:05.340Z,52.87
2018-11-28T12:27:07.714Z,49.90
2018-11-28T12:31:10.175Z,42.37
2018-11-28T12:35:15.918Z,50.93
2018-11-28T12:43:21.094Z,46.97
2018-11-28T12:47:23.474Z,40.50
2018-11-28T12:51:26.008Z,48.27
2018-11-28T12:55:29.276Z,40.67
2018-11-28T12:59:31.977Z,44.50
2018-11-28T13:03:34.482Z,42.20
2018-11-28T13:07:37.777Z,40.00
2018-11-28T13:11:40.199Z,45.27
2018-11-28T13:15:42.574Z,41.07
2018-11-28T13:19:44.981Z,43.90
2018-11-28T13:23:47.409Z,41.60
2018-11-28T13:27:49.928Z,39.13
2018-11-28T13:31:52.328Z,39.80
2018-11-28T13:35:56.321Z,40.27
2018-11-28T13:39:58.826Z,39.83
2018-11-28T13:44:01.287Z,40.43
2018-11-28T13:48:03.708Z,40.70
2018-11-28T13:52:06.111Z,46.80
2018-11-28T14:00:11.771Z,40.17
2018-11-28T14:04:14.858Z,37.30
2018-11-28T14:08:17.282Z,41.03
2018-11-28T14:12:19.741Z,38.20
2018-11-28T14:16:22.202Z,45.97
2018-11-28T14:20:24.636Z,38.60
2018-11-28T14:24:27.051Z,41.80
2018-11-28T14:28:29.473Z,39.13
2018-11-28T14:32:31.928Z,42.60
2018-11-28T14:36:34.418Z,40.10
2018-11-28T14:40:36.836Z,39.77
2018-11-28T14:44:39.313Z,40.20
2018-11-28T14:48:41.733Z,38.73
2018-11-28T14:52:44.372Z,38.60
2018-11-28T14:56:46.889Z,35.40
2018-11-28T15:00:49.438Z,37.10
2018-11-28T15:04:51.948Z,40.97
2018-11-28T15:08:58.954Z,38.93
2018-11-28T15:13:01.307Z,39.17
2018-11-28T15:17:03.821Z,42.33
2018-11-28T15:21:07.793Z,39.17
2018-11-28T15:25:10.486Z,37.23
2018-11-28T15:29:12.888Z,38.80
2018-11-28T15:33:15.418Z,42.17
2018-11-28T15:37:17.767Z,44.23
2018-11-28T15:41:20.208Z,37.73
2018-11-28T15:45:22.661Z,38.33
2018-11-28T15:49:25.150Z,40.50
2018-11-28T15:53:27.727Z,40.30
2018-11-28T15:57:34.375Z,39.67
2018-11-28T16:01:40.981Z,39.00
2018-11-28T16:05:51.363Z,42.07
2018-11-28T16:10:05.153Z,43.00
2018-11-28T16:14:15.903Z,44.73
2018-11-28T16:18:18.662Z,41.60
2018-11-28T16:22:21.101Z,40.43
2018-11-28T16:26:23.535Z,43.07
2018-11-28T16:30:27.152Z,37.97
2018-11-28T16:34:29.582Z,38.13
2018-11-28T16:38:32.010Z,44.37
2018-11-28T16:42:34.490Z,39.47
2018-11-28T16:46:36.988Z,40.90
2018-11-28T16:50:39.435Z,41.17
2018-11-28T16:54:41.998Z,39.43
2018-11-28T16:58:44.440Z,39.30
2018-11-28T17:02:46.850Z,42.40
2018-11-28T17:06:49.222Z,40.33
2018-11-28T17:10:51.656Z,42.93
2018-11-28T17:14:54.071Z,43.17
2018-11-28T17:18:56.491Z,41.03
2018-11-28T17:22:59.203Z,37.93
2018-11-28T17:27:01.615Z,45.07
2018-11-28T17:31:04.225Z,41.23
2018-11-28T17:35:08.184Z,39.87
2018-11-28T17:39:11.783Z,44.53
2018-11-28T17:43:14.139Z,38.37
2018-11-28T17:47:25.571Z,41.93
2018-11-28T17:51:28.639Z,40.27
2018-11-28T17:55:36.224Z,36.80
2018-11-28T17:59:38.628Z,38.03
2018-11-28T18:03:40.974Z,39.00
2018-11-28T18:07:43.356Z,37.80
2018-11-28T18:11:45.689Z,41.17
2018-11-28T18:15:53.798Z,36.13
2018-11-28T18:19:56.171Z,38.53
2018-11-28T18:23:58.653Z,34.60
2018-11-28T18:28:01.035Z,35.60
2018-11-28T18:32:03.460Z,38.87
2018-11-28T18:36:05.936Z,40.13
2018-11-28T18:40:09.742Z,41.63
2018-11-28T18:44:12.150Z,44.80
2018-11-28T18:48:14.535Z,42.17
2018-11-28T18:52:18.220Z,39.10
2018-11-28T18:56:20.590Z,41.67
2018-11-28T19:00:24.390Z,45.43
2018-11-28T19:04:26.804Z,41.63
2018-11-28T19:08:30.102Z,46.37
2018-11-28T19:12:32.759Z,48.73
2018-11-28T19:16:37.934Z,46.17
2018-11-28T19:20:37.766Z,47.63
2018-11-28T19:24:40.137Z,43.47
2018-11-28T19:28:42.532Z,43.37
2018-11-28T19:32:46.019Z,46.23
2018-11-28T19:36:48.424Z,65.07
2018-11-28T19:40:55.307Z,44.67
2018-11-28T19:44:58.731Z,49.13
2018-11-28T19:49:02.149Z,50.70
2018-11-28T19:53:05.572Z,49.90
2018-11-28T19:57:07.930Z,45.37
2018-11-28T20:01:10.356Z,49.63
2018-11-28T20:05:13.017Z,46.20
2018-11-28T20:09:20.911Z,51.33
2018-11-28T20:13:23.309Z,46.30
2018-11-28T20:17:26.024Z,53.03
2018-11-28T20:21:28.392Z,51.47
2018-11-28T20:25:30.834Z,54.17
2018-11-28T20:29:33.301Z,57.33
2018-11-28T20:33:35.713Z,52.30
2018-11-28T20:37:38.287Z,50.60
2018-11-28T20:41:40.851Z,52.67
2018-11-28T20:45:43.124Z,53.60
2018-11-28T20:49:45.494Z,51.87
2018-11-28T20:53:47.893Z,50.13
2018-11-28T20:57:52.254Z,53.83
2018-11-28T21:01:54.711Z,56.00
2018-11-28T21:05:57.157Z,56.40
2018-11-28T21:10:05.023Z,90.47
2018-11-28T21:14:07.878Z,65.43
2018-11-28T21:18:12.041Z,66.10
2018-11-28T21:22:14.593Z,56.90
2018-11-28T21:26:18.374Z,67.53
2018-11-28T21:30:26.292Z,66.20
2018-11-28T21:34:28.992Z,58.03
2018-11-28T21:38:31.353Z,64.90
2018-11-28T21:42:33.707Z,65.33
2018-11-28T21:46:36.042Z,71.97
2018-11-28T21:50:38.448Z,68.83
2018-11-28T21:54:40.872Z,66.07
2018-11-28T21:58:43.207Z,70.27
2018-11-28T22:02:45.674Z,69.57
2018-11-28T22:06:49.309Z,66.80
2018-11-28T22:10:51.728Z,62.30
2018-11-28T22:14:54.171Z,63.50
2018-11-28T22:18:56.667Z,74.97
2018-11-28T22:23:00.080Z,70.50
2018-11-28T22:27:03.463Z,63.73
2018-11-28T22:31:05.896Z,66.93
2018-11-28T22:35:08.516Z,63.23
2018-11-28T22:39:10.873Z,63.43
2018-11-28T22:43:13.192Z,60.73
2018-11-28T22:47:15.559Z,69.20
2018-11-28T22:51:17.928Z,66.47
2018-11-28T22:55:20.336Z,67.90
2018-11-28T22:59:22.778Z,69.00
2018-11-28T23:03:26.146Z,76.20
2018-11-28T23:07:29.501Z,68.33
2018-11-28T23:11:31.843Z,67.50
2018-11-28T23:15:34.641Z,69.17
2018-11-28T23:19:36.916Z,62.07
2018-11-28T23:23:39.280Z,59.60
2018-11-28T23:27:41.702Z,68.57
2018-11-28T23:31:44.080Z,72.07
2018-11-28T23:35:46.476Z,74.40
2018-11-28T23:39:48.857Z,69.07
2018-11-28T23:43:51.201Z,71.30
2018-11-28T23:47:53.634Z,63.63
2018-11-28T23:51:56.027Z,68.70
2018-11-28T23:55:58.427Z,79.93
